Time;durP1;ratioP1;P1;durP2;ratioP2;P2;SDS_P1;SDS_P2;PMS_P1;PMS_P2;Temp;Humidity;BMP_temperature;BMP_pressure;BME280_temperature;BME280_humidity;BME280_pressure;Samples;Min_cycle;Max_cycle;Signal;HPM_P1;HPM_P2
2023/01/14 00:01:53;;;;;;;6.93;5.90;;;5.10;99.90;;;;;;4994004;28;20042;-76
2023/01/14 00:04:19;;;;;;;6.60;5.40;;;5.00;99.90;;;;;;5008796;28;20062;-76
2023/01/14 00:06:45;;;;;;;7.13;5.53;;;5.00;99.90;;;;;;5002800;28;20147;-75
2023/01/14 00:09:13;;;;;;;7.85;5.32;;;5.00;99.90;;;;;;5001349;28;20107;-76
2023/01/14 00:11:50;;;;;;;6.32;5.25;;;5.00;99.90;;;;;;4992894;28;20397;-76
2023/01/14 00:14:18;;;;;;;8.02;4.75;;;5.00;99.90;;;;;;4997823;28;20107;-76
2023/01/14 00:16:51;;;;;;;7.72;5.40;;;5.00;99.90;;;;;;4997196;28;20026;-76
2023/01/14 00:19:18;;;;;;;6.03;5.43;;;5.00;99.90;;;;;;4997099;28;20098;-76
2023/01/14 00:21:45;;;;;;;5.75;5.15;;;4.90;99.90;;;;;;5000609;28;20508;-76
2023/01/14 00:24:15;;;;;;;8.38;5.13;;;4.90;99.90;;;;;;4994804;28;20493;-76
2023/01/14 00:26:42;;;;;;;8.60;5.53;;;5.00;99.90;;;;;;4993326;28;20030;-76
2023/01/14 00:29:16;;;;;;;6.13;5.05;;;5.00;99.90;;;;;;5004144;28;20105;-76
2023/01/14 00:31:43;;;;;;;5.68;5.07;;;5.10;99.90;;;;;;5001158;28;20028;-76
2023/01/14 00:34:09;;;;;;;5.18;4.68;;;5.10;99.90;;;;;;5000349;28;20022;-76
2023/01/14 00:36:35;;;;;;;8.38;6.18;;;5.10;99.90;;;;;;5006733;28;20030;-76
2023/01/14 00:39:02;;;;;;;7.72;5.10;;;5.10;99.90;;;;;;5004622;28;20358;-76
2023/01/14 00:41:28;;;;;;;5.30;4.63;;;5.10;99.90;;;;;;4991988;28;20022;-76
2023/01/14 00:43:58;;;;;;;9.43;4.90;;;5.00;99.90;;;;;;4988404;28;20498;-76
2023/01/14 00:46:32;;;;;;;8.45;4.85;;;5.00;99.90;;;;;;4995605;28;20117;-76
2023/01/14 00:49:00;;;;;;;7.20;4.85;;;5.00;99.90;;;;;;5003197;28;20079;-77
2023/01/14 00:51:30;;;;;;;5.00;4.50;;;5.00;99.90;;;;;;5001289;28;20466;-76
2023/01/14 00:53:56;;;;;;;5.43;4.93;;;5.00;99.90;;;;;;4992974;28;20058;-76
2023/01/14 00:56:22;;;;;;;5.05;4.40;;;5.00;99.90;;;;;;4999368;28;20061;-75
2023/01/14 00:58:49;;;;;;;60.15;40.08;;;5.10;99.90;;;;;;4997826;28;20029;-76
2023/01/14 01:01:16;;;;;;;281.17;187.02;;;5.20;99.90;;;;;;5000803;28;20023;-76
2023/01/14 01:03:44;;;;;;;26.73;20.52;;;5.20;99.90;;;;;;4998260;28;20089;-75
2023/01/14 01:06:11;;;;;;;8.82;7.88;;;5.30;99.90;;;;;;4996306;28;20026;-82
2023/01/14 01:08:37;;;;;;;8.30;6.28;;;5.20;99.90;;;;;;5000269;28;20026;-82
2023/01/14 01:11:04;;;;;;;7.10;5.00;;;5.10;99.90;;;;;;4995285;28;20427;-83
2023/01/14 01:13:29;;;;;;;5.22;4.72;;;5.20;99.90;;;;;;4999807;28;20022;-82
2023/01/14 01:16:00;;;;;;;5.28;4.45;;;5.20;99.90;;;;;;4999145;28;20206;-82
2023/01/14 01:18:26;;;;;;;5.18;4.47;;;5.20;99.90;;;;;;5000233;28;20164;-82
2023/01/14 01:21:01;;;;;;;4.30;4.00;;;5.20;99.90;;;;;;4995151;28;20514;-82
2023/01/14 01:23:27;;;;;;;4.40;4.07;;;5.10;99.90;;;;;;4996262;28;20501;-82
2023/01/14 01:26:03;;;;;;;5.28;4.72;;;5.20;99.90;;;;;;5005759;28;20041;-82
2023/01/14 01:28:29;;;;;;;5.35;4.32;;;5.10;99.90;;;;;;5001851;28;20034;-82
2023/01/14 01:31:03;;;;;;;5.45;4.20;;;5.10;99.90;;;;;;4998605;28;20037;-82
2023/01/14 01:33:29;;;;;;;5.47;4.00;;;5.10;99.90;;;;;;4996956;28;20031;-82
2023/01/14 01:36:00;;;;;;;5.25;4.70;;;5.10;99.90;;;;;;4994392;28;20026;-82
2023/01/14 01:38:25;;;;;;;4.88;4.20;;;5.10;99.90;;;;;;4994466;28;20708;-83
2023/01/14 01:40:51;;;;;;;4.80;4.40;;;5.10;99.90;;;;;;4995551;28;20050;-83
2023/01/14 01:43:18;;;;;;;4.65;4.25;;;5.00;99.90;;;;;;4999148;28;20484;-82
2023/01/14 01:45:45;;;;;;;5.68;4.63;;;5.00;99.90;;;;;;4997529;28;20033;-82
2023/01/14 01:48:16;;;;;;;4.40;4.10;;;5.00;99.90;;;;;;4998149;28;20625;-82
2023/01/14 01:50:44;;;;;;;5.10;4.40;;;5.00;99.90;;;;;;4999781;28;20026;-82
2023/01/14 01:53:11;;;;;;;4.85;4.45;;;5.00;99.90;;;;;;5000858;28;20032;-82
2023/01/14 01:55:40;;;;;;;4.70;4.05;;;5.00;99.90;;;;;;4999383;28;20075;-82
2023/01/14 01:58:07;;;;;;;5.75;4.05;;;5.00;99.90;;;;;;4996148;28;20068;-81
2023/01/14 02:00:32;;;;;;;4.30;3.80;;;5.00;99.90;;;;;;4999411;28;20474;-82
2023/01/14 02:03:02;;;;;;;5.38;3.88;;;5.10;99.90;;;;;;4998983;28;20056;-82
2023/01/14 02:05:29;;;;;;;4.82;4.22;;;5.10;99.90;;;;;;4999322;28;20065;-82
2023/01/14 02:07:57;;;;;;;4.35;3.95;;;5.10;99.90;;;;;;4998053;28;20034;-82
2023/01/14 02:10:40;;;;;;;4.82;4.22;;;5.10;99.90;;;;;;5003649;28;20079;-82
2023/01/14 02:13:20;;;;;;;4.15;3.70;;;5.10;99.90;;;;;;5000029;28;20034;-82
2023/01/14 02:16:13;;;;;;;4.50;4.10;;;5.10;99.90;;;;;;5000287;28;20026;-82
2023/01/14 02:19:04;;;;;;;4.32;3.90;;;5.10;99.90;;;;;;4999367;28;20544;-82
2023/01/14 02:21:36;;;;;;;3.92;3.63;;;5.10;99.90;;;;;;4999158;28;20034;-83
2023/01/14 02:24:19;;;;;;;5.35;4.07;;;5.10;99.90;;;;;;4996815;28;20026;-82
2023/01/14 02:26:45;;;;;;;4.40;4.00;;;5.10;99.90;;;;;;5001861;28;20037;-82
2023/01/14 02:29:46;;;;;;;4.88;3.67;;;5.10;99.90;;;;;;4999623;28;20030;-82
2023/01/14 02:32:22;;;;;;;6.63;4.00;;;5.10;99.90;;;;;;4998755;28;20025;-82
2023/01/14 02:35:05;;;;;;;4.60;3.50;;;5.10;99.90;;;;;;4999981;28;20052;-83
2023/01/14 02:37:43;;;;;;;4.15;3.67;;;5.10;99.90;;;;;;5002112;28;20038;-82
2023/01/14 02:40:37;;;;;;;5.75;3.80;;;5.10;99.90;;;;;;5003144;28;20480;-82
2023/01/14 02:46:44;;;;;;;5.97;3.47;;;5.10;99.90;;;;;;5001593;28;20480;-82
2023/01/14 02:49:13;;;;;;;6.03;3.65;;;5.10;99.90;;;;;;4999499;28;20273;-82
2023/01/14 02:51:39;;;;;;;4.10;3.70;;;5.10;99.90;;;;;;5002319;28;20030;-83
2023/01/14 02:54:05;;;;;;;3.40;3.10;;;5.10;99.90;;;;;;4996527;28;20432;-82
2023/01/14 02:56:32;;;;;;;5.80;3.47;;;5.10;99.90;;;;;;4999053;28;20478;-83
2023/01/14 02:59:27;;;;;;;5.07;3.90;;;5.10;99.90;;;;;;5003303;28;20046;-82
2023/01/14 03:02:07;;;;;;;3.50;3.22;;;5.10;99.90;;;;;;5000832;28;20022;-82
2023/01/14 03:04:45;;;;;;;3.50;3.20;;;5.10;99.90;;;;;;5001617;28;20509;-82
2023/01/14 03:07:14;;;;;;;4.00;3.00;;;5.00;99.90;;;;;;5001536;28;20094;-82
2023/01/14 03:10:16;;;;;;;4.55;3.38;;;5.10;99.90;;;;;;4997818;28;20363;-82
2023/01/14 03:12:52;;;;;;;4.43;3.28;;;5.10;99.90;;;;;;5016477;28;20069;-82
2023/01/14 03:15:26;;;;;;;3.05;2.85;;;5.00;99.90;;;;;;4999050;28;20018;-82
2023/01/14 03:18:07;;;;;;;4.43;3.45;;;5.10;99.90;;;;;;4997266;28;20065;-82
2023/01/14 03:20:37;;;;;;;3.20;3.00;;;5.10;99.90;;;;;;4995962;28;20026;-82
2023/01/14 03:23:07;;;;;;;4.13;3.17;;;5.10;99.90;;;;;;5003353;28;20543;-82
2023/01/14 03:25:36;;;;;;;3.20;2.90;;;5.20;99.90;;;;;;4998827;28;20025;-83
2023/01/14 03:28:05;;;;;;;3.13;2.83;;;5.10;99.90;;;;;;5016454;28;20048;-82
2023/01/14 03:30:35;;;;;;;2.92;2.72;;;5.20;99.90;;;;;;4999492;28;20037;-82
2023/01/14 03:33:14;;;;;;;3.75;2.72;;;5.20;99.90;;;;;;4998590;28;20030;-82
2023/01/14 03:35:42;;;;;;;2.75;2.55;;;5.20;99.90;;;;;;5001775;28;20029;-82
2023/01/14 03:38:17;;;;;;;4.25;2.92;;;5.10;99.90;;;;;;4999210;28;20023;-83
2023/01/14 03:40:46;;;;;;;5.15;2.88;;;5.10;99.90;;;;;;5002513;28;20552;-82
2023/01/14 03:43:34;;;;;;;5.30;3.17;;;5.10;99.90;;;;;;4997938;28;20114;-82
2023/01/14 03:46:01;;;;;;;2.90;2.70;;;5.20;99.90;;;;;;5004391;28;20123;-82
2023/01/14 03:48:27;;;;;;;3.72;2.70;;;5.20;99.90;;;;;;4997394;28;20480;-82
2023/01/14 03:50:57;;;;;;;3.17;2.97;;;5.20;99.90;;;;;;4996512;28;20037;-82
2023/01/14 03:53:38;;;;;;;3.33;3.03;;;5.20;99.90;;;;;;5001350;28;20046;-82
2023/01/14 03:56:13;;;;;;;3.63;2.80;;;5.20;99.90;;;;;;4996778;28;20080;-82
2023/01/14 03:58:56;;;;;;;3.05;2.75;;;5.20;99.90;;;;;;4997493;28;20026;-82
2023/01/14 04:01:31;;;;;;;3.72;2.45;;;5.30;99.90;;;;;;4997481;28;20508;-82
2023/01/14 04:03:57;;;;;;;2.42;2.30;;;5.20;99.90;;;;;;4999006;28;20050;-83
2023/01/14 04:06:23;;;;;;;3.00;2.70;;;5.20;99.90;;;;;;4998035;28;20493;-82
2023/01/14 04:08:48;;;;;;;3.85;2.72;;;5.20;99.90;;;;;;5005118;28;20027;-82
2023/01/14 04:11:14;;;;;;;2.25;2.05;;;5.20;99.90;;;;;;5001875;28;20388;-82
2023/01/14 04:16:23;;;;;;;2.80;2.35;;;5.20;99.90;;;;;;4999858;28;20038;-82
2023/01/14 04:18:49;;;;;;;2.63;2.42;;;5.30;99.90;;;;;;4999193;28;20026;-82
2023/01/14 04:21:15;;;;;;;3.92;2.75;;;5.30;99.90;;;;;;5002799;28;20385;-82
2023/01/14 04:23:41;;;;;;;2.50;2.30;;;5.20;99.90;;;;;;4996633;28;20030;-82
2023/01/14 04:26:06;;;;;;;3.00;2.00;;;5.20;99.90;;;;;;5001154;28;20116;-82
2023/01/14 04:28:32;;;;;;;2.75;2.55;;;5.20;99.90;;;;;;5002004;28;20029;-82
2023/01/14 04:30:57;;;;;;;2.15;2.05;;;5.20;99.90;;;;;;4997483;28;20030;-83
2023/01/14 04:33:23;;;;;;;2.65;2.45;;;5.20;99.90;;;;;;4999697;28;20036;-83
2023/01/14 04:35:49;;;;;;;4.55;2.20;;;5.20;99.90;;;;;;4999217;28;21293;-82
2023/01/14 04:38:21;;;;;;;3.13;2.28;;;5.10;99.90;;;;;;4998529;28;20026;-82
2023/01/14 04:40:50;;;;;;;;;;;5.20;99.90;;;;;;4996876;28;20375;-76
2023/01/14 04:43:16;;;;;;;2.00;1.90;;;5.20;99.90;;;;;;4998847;28;19913;-75
2023/01/14 04:45:42;;;;;;;2.95;1.77;;;5.20;99.90;;;;;;4997294;28;20474;-76
2023/01/14 04:48:08;;;;;;;3.42;2.22;;;5.30;99.90;;;;;;5000685;28;20068;-76
2023/01/14 04:50:34;;;;;;;2.10;2.00;;;5.20;99.90;;;;;;4997115;28;20026;-75
2023/01/14 04:53:08;;;;;;;2.50;2.30;;;5.20;99.90;;;;;;4999781;28;20029;-76
2023/01/14 04:55:37;;;;;;;4.93;2.03;;;5.20;99.90;;;;;;4996663;28;20034;-76
2023/01/14 04:58:03;;;;;;;1.92;1.83;;;5.20;99.90;;;;;;4999152;28;20025;-76
2023/01/14 05:00:29;;;;;;;3.40;2.15;;;5.20;99.90;;;;;;4999559;28;20348;-76
2023/01/14 05:02:55;;;;;;;3.75;2.20;;;5.20;99.90;;;;;;4997617;28;20054;-76
2023/01/14 05:05:20;;;;;;;3.40;2.10;;;5.10;99.90;;;;;;5002096;28;20026;-75
2023/01/14 05:07:46;;;;;;;2.85;2.38;;;5.10;99.90;;;;;;4998943;28;20034;-75
2023/01/14 05:10:12;;;;;;;3.83;2.22;;;5.10;99.90;;;;;;4997568;28;20023;-75
2023/01/14 05:12:37;;;;;;;2.63;2.42;;;5.10;99.90;;;;;;4998688;28;20022;-76
2023/01/14 05:15:07;;;;;;;2.65;2.28;;;5.10;99.90;;;;;;4999356;28;20442;-75
2023/01/14 05:17:33;;;;;;;2.33;2.10;;;5.10;99.90;;;;;;5000060;28;20034;-76
2023/01/14 05:19:58;;;;;;;3.80;2.45;;;5.10;99.90;;;;;;4997406;28;20037;-75
2023/01/14 05:22:24;;;;;;;3.83;2.08;;;5.10;99.90;;;;;;4999005;28;20028;-75
2023/01/14 05:24:49;;;;;;;5.43;2.22;;;5.20;99.90;;;;;;4998389;28;20031;-75
2023/01/14 05:27:15;;;;;;;3.78;2.25;;;5.20;99.90;;;;;;4998408;28;20030;-75
2023/01/14 05:29:41;;;;;;;2.17;2.08;;;5.20;99.90;;;;;;4995756;28;20564;-75
2023/01/14 05:32:07;;;;;;;2.72;2.50;;;5.20;99.90;;;;;;4996438;28;20036;-76
2023/01/14 05:34:33;;;;;;;3.97;2.30;;;5.20;99.90;;;;;;4996671;28;20401;-76
2023/01/14 05:36:59;;;;;;;4.20;1.92;;;5.30;99.90;;;;;;4996865;28;20026;-76
2023/01/14 05:39:24;;;;;;;1.80;1.70;;;5.30;99.90;;;;;;4998890;28;20022;-75
2023/01/14 05:47:18;;;;;;;2.22;2.00;;;5.30;99.90;;;;;;5000627;28;20396;-76
2023/01/14 05:49:44;;;;;;;2.38;1.70;;;5.20;99.90;;;;;;4998435;28;20030;-76
2023/01/14 05:52:09;;;;;;;11.80;2.20;;;5.20;99.90;;;;;;5001871;28;20032;-76
2023/01/14 05:54:35;;;;;;;2.70;1.88;;;5.20;99.90;;;;;;4999416;28;20026;-76
2023/01/14 05:57:00;;;;;;;3.22;1.75;;;5.30;99.90;;;;;;4999124;28;20057;-76
2023/01/14 05:59:26;;;;;;;4.13;1.88;;;5.30;99.90;;;;;;5003044;28;20026;-75
2023/01/14 06:07:20;;;;;;;2.03;1.63;;;5.30;99.90;;;;;;5000970;28;20125;-75
2023/01/14 06:09:45;;;;;;;1.80;1.55;;;5.30;99.90;;;;;;5001172;28;20114;-76
2023/01/14 06:12:31;;;;;;;2.20;1.70;;;5.30;99.90;;;;;;5001310;28;20057;-76
2023/01/14 06:14:56;;;;;;;2.28;1.88;;;5.30;99.90;;;;;;5002522;28;20045;-76
2023/01/14 06:17:27;;;;;;;2.65;2.45;;;5.40;99.90;;;;;;5000022;28;20394;-76
2023/01/14 06:19:53;;;;;;;2.85;2.33;;;5.20;99.90;;;;;;5000868;28;20026;-76
2023/01/14 06:22:19;;;;;;;3.97;2.30;;;5.20;99.90;;;;;;5001285;28;20099;-76
2023/01/14 06:24:44;;;;;;;4.53;2.10;;;5.10;99.90;;;;;;4995886;28;20443;-76
2023/01/14 06:27:10;;;;;;;2.30;2.20;;;5.00;99.90;;;;;;5001330;28;20030;-76
2023/01/14 06:29:35;;;;;;;2.42;2.03;;;5.00;99.90;;;;;;5002310;28;20079;-75
2023/01/14 06:32:01;;;;;;;2.25;1.85;;;5.10;99.90;;;;;;4999684;28;20031;-75
2023/01/14 06:34:27;;;;;;;2.35;1.80;;;5.10;99.90;;;;;;5000167;28;20057;-76
2023/01/14 06:36:55;;;;;;;2.00;1.90;;;5.20;99.90;;;;;;5001564;28;20054;-75
2023/01/14 06:39:21;;;;;;;4.00;1.48;;;5.20;99.90;;;;;;4999622;28;20060;-76
2023/01/14 06:41:47;;;;;;;2.40;1.48;;;5.10;99.90;;;;;;4999951;28;20481;-76
2023/01/14 06:44:12;;;;;;;1.63;1.52;;;5.10;99.90;;;;;;5000252;28;20378;-75
2023/01/14 06:46:38;;;;;;;1.85;1.70;;;5.10;99.90;;;;;;4998893;28;20411;-76
2023/01/14 06:49:04;;;;;;;2.17;1.70;;;5.10;99.90;;;;;;4999890;28;20026;-75
2023/01/14 06:51:31;;;;;;;3.70;2.25;;;5.20;99.90;;;;;;4999440;28;20124;-76
2023/01/14 06:53:57;;;;;;;1.83;1.42;;;5.20;99.90;;;;;;4996880;28;20504;-76
2023/01/14 06:56:23;;;;;;;1.63;1.52;;;5.20;99.90;;;;;;5003218;28;20100;-75
2023/01/14 06:58:49;;;;;;;4.00;1.70;;;5.10;99.90;;;;;;5000774;28;20097;-75
2023/01/14 07:01:19;;;;;;;2.22;2.00;;;5.10;99.90;;;;;;5001693;28;20485;-75
2023/01/14 07:03:45;;;;;;;2.70;1.77;;;5.10;99.90;;;;;;4998246;28;20046;-75
2023/01/14 07:06:11;;;;;;;2.55;2.35;;;5.10;99.90;;;;;;5000346;28;20260;-75
2023/01/14 07:08:36;;;;;;;3.42;2.10;;;5.10;99.90;;;;;;5000662;28;20153;-75
2023/01/14 07:11:02;;;;;;;2.75;2.30;;;5.10;99.90;;;;;;5001582;28;20282;-75
2023/01/14 07:13:28;;;;;;;4.22;2.30;;;5.10;99.90;;;;;;4999412;28;20026;-75
2023/01/14 07:15:55;;;;;;;4.00;2.10;;;5.00;99.90;;;;;;5003898;28;20130;-75
2023/01/14 07:18:21;;;;;;;2.38;1.83;;;5.10;99.90;;;;;;4999164;28;20053;-75
2023/01/14 07:20:46;;;;;;;2.72;2.08;;;5.10;99.90;;;;;;5000919;28;20109;-76
2023/01/14 07:23:12;;;;;;;3.25;2.35;;;5.10;99.90;;;;;;4999681;28;20089;-75
2023/01/14 07:25:39;;;;;;;2.47;2.03;;;5.10;99.90;;;;;;4998063;28;20469;-75
2023/01/14 07:28:05;;;;;;;3.25;2.25;;;5.10;99.90;;;;;;4999433;28;20022;-75
2023/01/14 07:30:31;;;;;;;2.25;1.85;;;5.10;99.90;;;;;;4998692;28;20428;-75
2023/01/14 07:32:59;;;;;;;2.38;2.28;;;5.10;99.90;;;;;;5000205;28;20030;-76
2023/01/14 07:35:26;;;;;;;1.95;1.85;;;5.00;99.90;;;;;;4997832;28;20026;-75
2023/01/14 07:37:56;;;;;;;2.25;2.03;;;5.00;99.90;;;;;;4998575;28;20026;-75
2023/01/14 07:40:23;;;;;;;1.90;1.80;;;5.10;99.90;;;;;;5000042;28;20022;-75
2023/01/14 07:42:54;;;;;;;2.50;2.17;;;5.10;99.90;;;;;;4998184;28;20026;-75
2023/01/14 07:45:19;;;;;;;5.88;2.35;;;5.10;99.90;;;;;;4998756;28;20121;-76
2023/01/14 07:47:45;;;;;;;6.65;2.25;;;5.10;99.90;;;;;;4999878;28;20310;-76
2023/01/14 07:50:11;;;;;;;4.85;2.17;;;5.20;99.90;;;;;;4999570;28;20245;-75
2023/01/14 07:52:36;;;;;;;4.18;2.67;;;5.30;99.90;;;;;;4999194;28;20181;-76
2023/01/14 07:55:05;;;;;;;3.35;2.13;;;5.20;99.90;;;;;;4994423;28;20057;-75
2023/01/14 07:57:30;;;;;;;3.65;2.28;;;5.20;99.90;;;;;;4999863;28;20499;-75
2023/01/14 07:59:56;;;;;;;3.95;2.08;;;5.30;99.90;;;;;;4998614;28;20026;-75
2023/01/14 08:02:22;;;;;;;2.70;2.33;;;5.30;99.90;;;;;;4996908;28;20033;-75
2023/01/14 08:04:47;;;;;;;2.38;2.17;;;5.30;99.90;;;;;;5000482;28;20052;-75
2023/01/14 08:07:13;;;;;;;8.63;2.67;;;5.30;99.90;;;;;;4999845;28;20107;-75
2023/01/14 08:09:39;;;;;;;3.35;2.58;;;5.40;99.90;;;;;;4997120;28;20030;-75
2023/01/14 08:12:04;;;;;;;2.85;2.65;;;5.40;99.90;;;;;;5000366;28;20031;-75
2023/01/14 08:14:30;;;;;;;3.75;2.58;;;5.50;99.90;;;;;;4999759;28;20361;-75
2023/01/14 08:16:56;;;;;;;3.42;2.42;;;5.50;99.90;;;;;;5000252;28;20419;-76
2023/01/14 08:19:23;;;;;;;2.88;2.55;;;5.60;99.90;;;;;;4998139;28;20148;-75
2023/01/14 08:21:48;;;;;;;7.85;6.68;;;5.70;99.90;;;;;;5000012;28;20279;-75
2023/01/14 08:24:14;;;;;;;13.27;8.80;;;5.70;99.90;;;;;;5003502;28;20386;-75
2023/01/14 08:26:39;;;;;;;10.95;8.13;;;5.70;99.90;;;;;;5000539;28;20435;-76
2023/01/14 08:29:05;;;;;;;16.83;9.82;;;5.70;99.90;;;;;;4998156;28;20200;-75
2023/01/14 08:31:31;;;;;;;15.25;8.60;;;5.70;99.90;;;;;;4999271;28;20040;-75
2023/01/14 08:33:59;;;;;;;12.57;7.63;;;5.70;99.90;;;;;;4998944;28;20034;-75
2023/01/14 08:36:33;;;;;;;9.77;7.10;;;5.60;99.90;;;;;;4999322;28;20370;-75
2023/01/14 08:38:59;;;;;;;6.70;5.78;;;5.60;99.90;;;;;;5000272;28;20026;-76
2023/01/14 08:41:25;;;;;;;7.32;4.80;;;5.70;99.90;;;;;;4997832;28;20038;-75
2023/01/14 08:43:54;;;;;;;4.03;3.65;;;5.70;99.90;;;;;;5002366;28;20497;-75
2023/01/14 08:46:19;;;;;;;3.67;3.40;;;5.80;99.90;;;;;;4996824;28;20039;-76
2023/01/14 08:48:45;;;;;;;7.50;3.20;;;5.90;99.90;;;;;;5000356;28;20053;-75
2023/01/14 08:51:13;;;;;;;4.38;3.40;;;5.90;99.90;;;;;;4998300;28;20227;-75
2023/01/14 08:53:40;;;;;;;3.33;3.05;;;5.90;99.90;;;;;;4994537;28;20037;-76
2023/01/14 08:56:07;;;;;;;4.60;3.78;;;6.00;99.90;;;;;;4996996;28;20469;-75
2023/01/14 08:58:36;;;;;;;9.25;6.00;;;6.00;99.90;;;;;;4999264;28;20051;-75
2023/01/14 09:01:05;;;;;;;10.65;6.22;;;6.00;99.90;;;;;;5000017;28;20022;-76
2023/01/14 09:03:32;;;;;;;9.75;5.10;;;6.20;99.90;;;;;;4996475;28;20054;-75
2023/01/14 09:06:00;;;;;;;6.65;4.80;;;6.20;99.90;;;;;;4998864;28;20037;-76
2023/01/14 09:19:43;;;;;;;10.60;7.30;;;6.40;99.90;;;;;;4991597;28;20061;-76
2023/01/14 09:22:11;;;;;;;11.68;8.02;;;6.50;99.90;;;;;;4999583;28;20023;-76
2023/01/14 09:24:37;;;;;;;12.73;7.63;;;6.40;99.90;;;;;;4997294;28;20031;-76
2023/01/14 09:27:03;;;;;;;15.23;8.02;;;6.50;99.90;;;;;;5000798;28;20029;-76
2023/01/14 09:29:29;;;;;;;8.18;6.20;;;6.50;99.90;;;;;;5003200;28;20034;-76
2023/01/14 09:31:54;;;;;;;8.95;6.03;;;6.60;99.90;;;;;;5000417;28;20030;-75
2023/01/14 09:34:20;;;;;;;9.40;6.60;;;6.60;99.90;;;;;;5001091;28;20037;-76
2023/01/14 09:36:46;;;;;;;8.80;5.95;;;6.70;99.90;;;;;;5002595;28;20264;-76
2023/01/14 09:39:11;;;;;;;6.28;5.55;;;6.80;99.90;;;;;;4999215;28;20030;-75
2023/01/14 09:42:01;;;;;;;7.30;5.97;;;6.90;99.90;;;;;;5001448;28;20099;-75
2023/01/14 09:44:27;;;;;;;8.20;5.80;;;7.10;99.90;;;;;;5001250;28;20049;-75
2023/01/14 09:46:52;;;;;;;9.68;6.22;;;7.10;99.90;;;;;;5001115;28;20031;-75
2023/01/14 09:49:24;;;;;;;6.50;5.90;;;7.10;99.90;;;;;;5003063;28;20026;-75
2023/01/14 09:51:58;;;;;;;11.02;8.65;;;7.10;99.90;;;;;;5001602;28;20030;-75
2023/01/14 09:54:55;;;;;;;11.65;7.22;;;7.20;99.90;;;;;;4996677;28;20036;-75
2023/01/14 09:57:43;;;;;;;11.40;6.35;;;7.20;99.90;;;;;;5001744;28;20075;-75
2023/01/14 10:00:33;;;;;;;11.13;7.40;;;7.20;99.90;;;;;;5001915;28;20485;-75
2023/01/14 10:03:13;;;;;;;8.93;7.13;;;7.20;99.90;;;;;;4997987;28;20084;-75
2023/01/14 10:05:42;;;;;;;7.10;6.40;;;7.20;99.90;;;;;;5000834;28;20435;-75
2023/01/14 10:08:14;;;;;;;10.27;6.75;;;7.20;99.90;;;;;;4998491;28;20436;-75
2023/01/14 10:10:42;;;;;;;8.48;6.80;;;7.20;99.90;;;;;;5000110;28;20031;-75
2023/01/14 10:13:19;;;;;;;6.68;5.90;;;7.40;99.90;;;;;;5000114;28;20080;-75
2023/01/14 10:15:50;;;;;;;9.55;6.90;;;7.50;99.90;;;;;;5000982;28;20257;-75
2023/01/14 10:18:43;;;;;;;12.50;7.65;;;7.40;99.90;;;;;;5001388;28;20041;-75
2023/01/14 10:21:43;;;;;;;8.10;6.35;;;7.50;99.90;;;;;;5000302;28;20022;-75
2023/01/14 10:24:13;;;;;;;8.70;7.13;;;7.50;99.90;;;;;;4998225;28;20170;-75
2023/01/14 10:26:40;;;;;;;7.65;6.45;;;7.60;99.90;;;;;;5000309;28;20030;-75
2023/01/14 10:29:21;;;;;;;9.45;6.80;;;7.70;99.90;;;;;;4998826;28;20441;-75
2023/01/14 10:31:58;;;;;;;7.73;6.80;;;7.80;99.90;;;;;;5006133;28;20129;-76
2023/01/14 10:34:30;;;;;;;10.85;7.40;;;8.00;99.90;;;;;;5005254;28;20288;-75
2023/01/14 10:36:55;;;;;;;;;;;8.10;99.90;;;;;;5002589;28;20095;-75
2023/01/14 10:39:21;;;;;;;8.40;7.07;;;8.20;99.90;;;;;;4999541;28;20349;-75
2023/01/14 10:41:48;;;;;;;13.95;7.97;;;8.30;99.90;;;;;;5003038;28;20488;-75
2023/01/14 10:44:29;;;;;;;8.23;7.43;;;8.30;99.90;;;;;;5009457;28;20025;-75
2023/01/14 10:47:04;;;;;;;10.35;7.40;;;8.40;99.90;;;;;;5007427;28;20546;-75
2023/01/14 10:49:45;;;;;;;9.77;7.55;;;8.40;99.90;;;;;;5003216;28;20026;-75
2023/01/14 10:52:26;;;;;;;9.20;7.43;;;8.50;99.90;;;;;;5003675;28;20485;-75
2023/01/14 10:55:10;;;;;;;7.65;6.53;;;8.50;99.90;;;;;;5005484;28;20517;-75
2023/01/14 10:57:58;;;;;;;7.43;5.72;;;8.40;99.90;;;;;;4997408;28;20019;-75
2023/01/14 11:00:32;;;;;;;6.95;6.10;;;8.40;99.90;;;;;;5000297;28;20049;-75
2023/01/14 11:02:59;;;;;;;10.02;6.32;;;8.50;99.90;;;;;;5008432;28;20491;-76
2023/01/14 11:05:32;;;;;;;8.95;6.03;;;8.50;99.90;;;;;;5009021;28;20030;-75
2023/01/14 11:08:19;;;;;;;9.43;6.00;;;8.50;99.90;;;;;;5000319;28;20065;-75
2023/01/14 11:10:52;;;;;;;8.23;6.20;;;8.60;99.90;;;;;;5002871;28;20394;-76
2023/01/14 11:13:29;;;;;;;9.73;6.13;;;8.60;99.90;;;;;;5005153;28;20358;-75
2023/01/14 11:15:56;;;;;;;9.73;6.22;;;8.70;99.90;;;;;;4998425;28;20026;-76
2023/01/14 11:18:26;;;;;;;7.40;5.63;;;8.80;99.90;;;;;;5002370;28;20384;-75
2023/01/14 11:21:07;;;;;;;9.77;6.57;;;8.80;99.90;;;;;;5000208;28;20104;-76
2023/01/14 11:23:36;;;;;;;6.97;6.20;;;8.80;99.90;;;;;;5003432;28;20026;-76
2023/01/14 11:26:10;;;;;;;9.65;6.63;;;8.90;99.90;;;;;;4999267;28;20366;-75
2023/01/14 11:28:46;;;;;;;10.82;8.05;;;8.90;99.90;;;;;;4997451;28;20394;-76
2023/01/14 11:31:13;;;;;;;9.15;6.90;;;8.90;99.90;;;;;;4996711;28;20506;-75
2023/01/14 11:33:49;;;;;;;10.80;8.23;;;9.00;99.90;;;;;;4997243;28;20029;-76
2023/01/14 11:36:23;;;;;;;9.68;8.13;;;9.10;99.90;;;;;;5000617;28;20026;-75
2023/01/14 11:38:49;;;;;;;8.88;7.35;;;9.10;99.90;;;;;;4998890;28;20026;-76
2023/01/14 11:41:31;;;;;;;10.60;7.53;;;9.20;99.90;;;;;;4996296;28;20574;-76
2023/01/14 11:44:02;;;;;;;11.55;8.38;;;9.20;99.90;;;;;;4995639;28;20057;-76
2023/01/14 11:46:28;;;;;;;8.97;7.57;;;9.30;99.90;;;;;;4994566;28;20031;-76
2023/01/14 11:49:25;;;;;;;36.30;18.60;;;9.30;99.90;;;;;;4996573;28;20381;-75
2023/01/14 11:52:05;;;;;;;27.77;13.80;;;9.30;99.90;;;;;;4998418;28;20493;-76
2023/01/14 11:54:38;;;;;;;16.52;9.52;;;9.30;99.90;;;;;;4994906;28;20101;-76
2023/01/14 11:57:15;;;;;;;21.25;12.73;;;9.40;99.90;;;;;;4998585;28;20432;-76
2023/01/14 11:59:42;;;;;;;13.00;8.93;;;9.40;99.90;;;;;;4998486;28;20543;-76
2023/01/14 12:02:32;;;;;;;13.57;9.32;;;9.50;99.90;;;;;;4998830;28;20036;-76
2023/01/14 12:05:13;;;;;;;9.80;8.40;;;9.60;99.90;;;;;;4999976;28;20050;-75
2023/01/14 12:07:47;;;;;;;13.00;9.20;;;9.70;99.90;;;;;;4998157;28;20034;-76
2023/01/14 12:10:43;;;;;;;11.48;9.27;;;9.80;99.90;;;;;;4996808;28;20030;-76
2023/01/14 12:19:30;;;;;;;15.23;9.50;;;9.80;99.90;;;;;;4999218;28;20033;-76
2023/01/14 12:22:15;;;;;;;12.35;8.77;;;9.90;99.90;;;;;;4998528;28;20076;-76
2023/01/14 12:24:59;;;;;;;72.72;26.48;;;9.90;99.90;;;;;;4999702;28;20030;-76
2023/01/14 12:27:43;;;;;;;47.70;21.60;;;10.00;99.90;;;;;;4999390;28;20045;-76
2023/01/14 12:30:24;;;;;;;20.92;13.25;;;10.00;99.90;;;;;;4999216;28;20031;-76
2023/01/14 12:33:08;;;;;;;11.70;9.85;;;10.10;99.90;;;;;;4997172;28;20029;-75
2023/01/14 12:35:56;;;;;;;12.27;9.98;;;10.10;99.90;;;;;;4998584;28;20033;-75
2023/01/14 12:47:18;;;;;;;13.43;11.38;;;10.10;99.90;;;;;;4952161;28;20046;-76
2023/01/14 12:49:47;;;;;;;10.88;9.77;;;10.10;99.90;;;;;;4995587;28;20429;-75
2023/01/14 12:52:23;;;;;;;14.10;10.90;;;10.20;99.90;;;;;;4996927;28;20034;-75
2023/01/14 12:54:50;;;;;;;14.13;11.63;;;10.30;99.90;;;;;;4999484;28;20034;-75
2023/01/14 12:57:23;;;;;;;12.93;10.43;;;10.30;99.90;;;;;;5005704;28;20037;-75
2023/01/14 12:59:56;;;;;;;11.93;10.70;;;10.30;99.90;;;;;;5001409;28;20477;-75
2023/01/14 13:02:33;;;;;;;14.95;11.07;;;10.30;99.90;;;;;;4999197;28;20037;-76
2023/01/14 13:05:08;;;;;;;14.98;12.18;;;10.30;99.90;;;;;;4999473;28;20154;-75
2023/01/14 13:07:49;;;;;;;17.83;11.90;;;10.30;99.90;;;;;;5000467;28;20049;-75
2023/01/14 13:10:30;;;;;;;13.77;11.85;;;10.30;99.90;;;;;;4988946;28;20125;-75
2023/01/14 13:12:57;;;;;;;12.07;10.87;;;10.40;99.90;;;;;;4999602;28;20030;-76
2023/01/14 13:15:34;;;;;;;13.35;11.68;;;10.30;99.90;;;;;;5001159;28;20317;-75
2023/01/14 13:18:03;;;;;;;15.52;12.23;;;10.30;99.90;;;;;;4994586;28;20017;-75
2023/01/14 13:20:28;;;;;;;17.85;12.45;;;10.30;99.90;;;;;;4997662;28;20163;-75
2023/01/14 13:22:58;;;;;;;27.63;17.70;;;10.30;99.90;;;;;;5009000;28;20682;-75
2023/01/14 13:25:33;;;;;;;16.42;12.80;;;10.30;99.90;;;;;;5000295;28;20381;-76
2023/01/14 13:28:21;;;;;;;13.75;11.55;;;10.30;99.90;;;;;;5008733;28;20029;-75
2023/01/14 13:30:59;;;;;;;16.42;11.70;;;10.20;99.90;;;;;;4988895;28;20396;-76
2023/01/14 13:33:32;;;;;;;15.57;12.35;;;10.20;99.90;;;;;;4987840;28;20090;-76
2023/01/14 13:36:10;;;;;;;13.60;11.43;;;10.20;99.90;;;;;;5004035;28;20363;-76
2023/01/14 13:38:57;;;;;;;16.75;12.50;;;10.20;99.90;;;;;;4987840;28;20030;-75
2023/01/14 13:41:48;;;;;;;14.23;11.85;;;10.20;99.90;;;;;;4987543;28;20033;-76
2023/01/14 13:44:33;;;;;;;15.80;12.02;;;10.30;99.90;;;;;;5007471;28;20034;-76
2023/01/14 13:47:02;;;;;;;14.80;12.93;;;10.40;99.90;;;;;;4996593;28;20117;-75
2023/01/14 13:49:41;;;;;;;16.83;12.75;;;10.30;99.90;;;;;;4997981;28;20564;-76
2023/01/14 13:52:21;;;;;;;16.30;13.60;;;10.30;99.90;;;;;;5003625;28;20104;-75
2023/01/14 13:54:59;;;;;;;15.32;12.75;;;10.30;99.90;;;;;;4995925;28;20022;-75
2023/01/14 13:57:37;;;;;;;14.73;13.15;;;10.30;99.90;;;;;;4996673;28;20393;-76